createdAt,value
2023-11-20T00:01:59.120Z,3.95
2023-11-20T00:04:26.414Z,9.60
2023-11-20T00:06:53.407Z,3.97
2023-11-20T00:09:20.070Z,9.10
2023-11-20T00:11:46.793Z,5.93
2023-11-20T00:14:14.802Z,9.95
2023-11-20T00:16:41.841Z,6.32
2023-11-20T00:19:11.739Z,8.10
2023-11-20T00:21:42.678Z,6.20
2023-11-20T00:24:10.632Z,6.18
2023-11-20T00:26:38.135Z,8.13
2023-11-20T00:29:08.464Z,5.88
2023-11-20T00:31:38.104Z,6.20
2023-11-20T00:34:05.274Z,7.03
2023-11-20T00:36:32.221Z,8.40
2023-11-20T00:38:58.811Z,5.55
2023-11-20T00:41:26.553Z,8.90
2023-11-20T00:43:53.298Z,10.88
2023-11-20T00:46:20.093Z,13.02
2023-11-20T00:48:46.771Z,3.70
2023-11-20T00:51:14.707Z,7.05
2023-11-20T00:53:41.590Z,5.00
2023-11-20T00:56:08.532Z,6.50
2023-11-20T00:58:36.063Z,7.38
2023-11-20T01:01:03.051Z,11.70
2023-11-20T01:03:30.152Z,5.53
2023-11-20T01:05:57.231Z,6.43
2023-11-20T01:08:23.826Z,5.07
2023-11-20T01:10:50.317Z,5.35
2023-11-20T01:13:16.885Z,5.65
2023-11-20T01:15:43.468Z,7.35
2023-11-20T01:18:10.158Z,5.68
2023-11-20T01:20:36.791Z,10.23
2023-11-20T01:23:04.232Z,2.95
2023-11-20T01:25:32.946Z,3.45
2023-11-20T01:28:00.273Z,3.50
2023-11-20T01:30:27.840Z,2.30
2023-11-20T01:32:54.670Z,2.70
2023-11-20T01:35:21.939Z,2.17
2023-11-20T01:37:48.523Z,3.97
2023-11-20T01:40:15.478Z,3.45
2023-11-20T01:42:42.212Z,5.45
2023-11-20T01:45:09.439Z,3.35
2023-11-20T01:47:39.627Z,5.97
2023-11-20T01:50:11.165Z,1.92
2023-11-20T01:52:42.278Z,2.95
2023-11-20T01:55:10.581Z,2.92
2023-11-20T01:57:40.128Z,2.00
2023-11-20T02:00:10.520Z,1.35
2023-11-20T02:05:09.840Z,2.20
2023-11-20T02:07:37.704Z,5.13
2023-11-20T02:10:08.574Z,3.13
2023-11-20T02:12:36.261Z,2.15
2023-11-20T02:15:03.493Z,3.95
2023-11-20T02:17:30.640Z,1.50
2023-11-20T02:19:57.222Z,2.17
2023-11-20T02:22:23.926Z,1.85
2023-11-20T02:24:50.619Z,4.47
2023-11-20T02:27:53.356Z,2.53
2023-11-20T02:30:20.203Z,2.10
2023-11-20T02:32:46.865Z,2.20
2023-11-20T02:35:19.899Z,3.65
2023-11-20T02:37:48.155Z,4.57
2023-11-20T02:40:15.127Z,2.50
2023-11-20T02:42:42.606Z,6.07
2023-11-20T02:45:14.190Z,1.83
2023-11-20T02:47:40.879Z,5.10
2023-11-20T02:50:07.910Z,2.20
2023-11-20T02:52:34.445Z,3.05
2023-11-20T02:55:00.966Z,3.78
2023-11-20T02:57:27.949Z,5.07
2023-11-20T02:59:54.444Z,4.85
2023-11-20T03:02:21.064Z,4.25
2023-11-20T03:04:47.592Z,2.03
2023-11-20T03:07:15.865Z,5.40
2023-11-20T03:09:42.832Z,2.55
2023-11-20T03:12:09.503Z,1.90
2023-11-20T03:14:36.157Z,2.70
2023-11-20T03:17:02.774Z,1.65
2023-11-20T03:19:29.941Z,3.78
2023-11-20T03:21:56.791Z,1.73
2023-11-20T03:24:23.538Z,7.45
2023-11-20T03:26:50.425Z,5.25
2023-11-20T03:29:17.123Z,4.50
2023-11-20T03:31:43.679Z,6.20
2023-11-20T03:34:10.158Z,9.05
2023-11-20T03:36:36.999Z,5.97
2023-11-20T03:39:04.364Z,4.03
2023-11-20T03:41:31.285Z,6.78
2023-11-20T03:43:57.814Z,9.60
2023-11-20T03:46:24.389Z,6.45
2023-11-20T03:48:51.027Z,13.90
2023-11-20T03:51:18.395Z,12.68
2023-11-20T03:53:45.404Z,9.85
2023-11-20T03:56:16.563Z,16.23
2023-11-20T03:58:45.646Z,17.83
2023-11-20T04:01:13.137Z,6.38
2023-11-20T04:03:40.051Z,8.18
2023-11-20T04:06:07.099Z,15.57
2023-11-20T04:08:33.730Z,9.82
2023-11-20T04:11:00.240Z,11.27
2023-11-20T04:13:26.797Z,16.02
2023-11-20T04:15:53.487Z,16.83
2023-11-20T04:18:20.275Z,14.20
2023-11-20T04:20:47.104Z,16.27
2023-11-20T04:23:13.943Z,9.23
2023-11-20T04:25:40.504Z,4.68
2023-11-20T04:28:07.291Z,12.68
2023-11-20T04:30:33.829Z,11.85
2023-11-20T04:33:00.462Z,10.38
2023-11-20T04:35:26.982Z,9.63
2023-11-20T04:37:53.677Z,9.32
2023-11-20T04:40:20.226Z,14.30
2023-11-20T04:42:46.701Z,10.02
2023-11-20T04:45:13.778Z,24.23
2023-11-20T04:47:41.790Z,9.48
2023-11-20T04:50:09.916Z,8.70
2023-11-20T04:52:39.378Z,8.18
2023-11-20T04:55:06.890Z,11.60
2023-11-20T04:57:34.948Z,9.90
2023-11-20T05:00:04.243Z,6.57
2023-11-20T05:02:30.865Z,11.70
2023-11-20T05:04:57.703Z,9.13
2023-11-20T05:07:24.858Z,12.43
2023-11-20T05:09:52.502Z,11.35
2023-11-20T05:12:19.133Z,12.32
2023-11-20T05:14:45.628Z,11.52
2023-11-20T05:17:12.287Z,12.65
2023-11-20T05:19:38.784Z,17.70
2023-11-20T05:22:05.543Z,11.13
2023-11-20T05:24:32.406Z,9.82
2023-11-20T05:26:59.043Z,8.82
2023-11-20T05:29:25.448Z,12.15
2023-11-20T05:31:52.202Z,11.00
2023-11-20T05:34:20.155Z,13.40
2023-11-20T05:36:46.610Z,8.15
2023-11-20T05:39:13.146Z,10.93
2023-11-20T05:41:40.144Z,12.25
2023-11-20T05:44:06.697Z,11.45
2023-11-20T05:46:33.252Z,9.70
2023-11-20T05:49:00.006Z,6.80
2023-11-20T05:51:26.517Z,10.55
2023-11-20T05:53:53.044Z,12.70
2023-11-20T05:56:19.494Z,10.38
2023-11-20T05:58:46.856Z,8.00
2023-11-20T06:01:13.911Z,10.88
2023-11-20T06:03:40.747Z,9.23
2023-11-20T06:06:07.538Z,5.85
2023-11-20T06:08:35.175Z,8.95
2023-11-20T06:11:01.590Z,8.50
2023-11-20T06:13:28.096Z,10.90
2023-11-20T06:15:54.625Z,11.23
2023-11-20T06:18:21.045Z,3.67
2023-11-20T06:20:47.513Z,13.55
2023-11-20T06:23:14.255Z,6.95
2023-11-20T06:25:40.806Z,15.55
2023-11-20T06:28:07.289Z,12.85
2023-11-20T06:30:34.318Z,11.07
2023-11-20T06:33:00.915Z,13.95
2023-11-20T06:35:27.580Z,15.85
2023-11-20T06:37:54.186Z,8.82
2023-11-20T06:40:20.724Z,12.77
2023-11-20T06:42:47.356Z,8.90
2023-11-20T06:45:14.037Z,11.30
2023-11-20T06:47:40.521Z,11.80
2023-11-20T06:50:07.847Z,11.90
2023-11-20T06:52:34.933Z,10.63
2023-11-20T06:55:01.654Z,11.30
2023-11-20T06:57:28.558Z,7.15
2023-11-20T06:59:55.053Z,5.70
2023-11-20T07:02:23.337Z,16.77
2023-11-20T07:04:50.249Z,8.60
2023-11-20T07:07:18.913Z,10.68
2023-11-20T07:09:45.633Z,13.38
2023-11-20T07:12:12.470Z,9.38
2023-11-20T07:14:40.155Z,10.40
2023-11-20T07:17:06.765Z,6.85
2023-11-20T07:19:33.306Z,13.45
2023-11-20T07:21:59.887Z,9.95
2023-11-20T07:24:26.543Z,6.93
2023-11-20T07:26:53.076Z,11.38
2023-11-20T07:29:19.621Z,10.65
2023-11-20T07:31:46.305Z,11.60
2023-11-20T07:34:13.014Z,9.93
2023-11-20T07:36:39.521Z,10.07
2023-11-20T07:39:06.232Z,8.27
2023-11-20T07:41:32.858Z,8.13
2023-11-20T07:43:59.874Z,16.10
2023-11-20T07:46:26.608Z,11.82
2023-11-20T07:48:54.793Z,15.40
2023-11-20T07:51:21.688Z,11.07
2023-11-20T07:53:49.660Z,6.13
2023-11-20T07:56:17.580Z,16.00
2023-11-20T07:58:44.193Z,7.85
2023-11-20T08:01:10.863Z,9.25
2023-11-20T08:03:37.605Z,4.07
2023-11-20T08:06:16.681Z,10.13
2023-11-20T08:08:47.919Z,9.05
2023-11-20T08:11:14.398Z,9.80
2023-11-20T08:13:40.889Z,10.48
2023-11-20T08:16:09.532Z,14.98
2023-11-20T08:18:37.592Z,10.77
2023-11-20T08:21:04.602Z,10.50
2023-11-20T08:23:31.169Z,8.68
2023-11-20T08:25:58.166Z,14.68
2023-11-20T08:28:24.682Z,9.75
2023-11-20T08:30:51.975Z,14.35
2023-11-20T08:33:18.471Z,10.80
2023-11-20T08:35:45.078Z,14.55
2023-11-20T08:38:12.265Z,13.57
2023-11-20T08:40:39.175Z,10.43
2023-11-20T08:43:07.067Z,10.95
2023-11-20T08:45:34.420Z,10.77
2023-11-20T08:48:01.198Z,10.52
2023-11-20T08:50:28.095Z,9.18
2023-11-20T08:52:54.596Z,10.00
2023-11-20T08:55:21.516Z,12.05
2023-11-20T08:57:48.560Z,14.75
2023-11-20T09:00:16.611Z,10.23
2023-11-20T09:05:14.224Z,11.02
2023-11-20T09:07:42.486Z,16.90
2023-11-20T09:12:37.544Z,17.70
2023-11-20T09:15:05.984Z,9.27
2023-11-20T09:17:32.734Z,11.85
2023-11-20T09:19:59.803Z,13.38
2023-11-20T09:22:26.724Z,10.55
2023-11-20T09:24:59.353Z,17.20
2023-11-20T09:27:31.549Z,14.93
2023-11-20T09:29:59.317Z,15.63
2023-11-20T09:32:27.549Z,15.48
2023-11-20T09:37:20.596Z,10.38
2023-11-20T09:39:47.804Z,15.25
2023-11-20T09:42:15.774Z,19.63
2023-11-20T09:44:47.537Z,8.35
2023-11-20T09:47:15.680Z,2.15
2023-11-20T09:49:46.169Z,9.27
2023-11-20T09:52:13.800Z,7.40
2023-11-20T09:54:44.519Z,5.63
2023-11-20T09:57:11.350Z,9.93
2023-11-20T09:59:38.692Z,11.68
2023-11-20T10:02:06.353Z,8.45
2023-11-20T10:04:34.729Z,13.05
2023-11-20T10:07:07.011Z,13.70
2023-11-20T10:09:34.381Z,16.50
2023-11-20T10:12:04.752Z,11.75
2023-11-20T10:14:36.141Z,13.80
2023-11-20T10:17:03.341Z,11.98
2023-11-20T10:19:30.832Z,10.25
2023-11-20T10:21:59.763Z,6.97
2023-11-20T10:24:26.333Z,8.07
2023-11-20T10:26:53.861Z,5.63
2023-11-20T10:29:22.013Z,9.30
2023-11-20T10:34:19.082Z,7.82
2023-11-20T10:37:07.466Z,15.50
2023-11-20T10:39:34.266Z,8.48
2023-11-20T10:42:00.752Z,7.78
2023-11-20T10:44:27.687Z,11.85
2023-11-20T10:46:55.103Z,8.05
2023-11-20T10:49:23.472Z,9.45
2023-11-20T10:51:57.543Z,9.63
2023-11-20T10:54:45.165Z,9.32
2023-11-20T10:59:40.769Z,7.78
2023-11-20T11:02:18.923Z,11.55
2023-11-20T11:04:46.286Z,14.30
2023-11-20T11:07:15.433Z,9.68
2023-11-20T11:09:42.227Z,11.07
2023-11-20T11:12:09.488Z,8.80
2023-11-20T11:14:35.988Z,10.45
2023-11-20T11:17:08.165Z,11.98
2023-11-20T11:19:44.056Z,8.30
2023-11-20T11:22:14.719Z,13.50
2023-11-20T11:24:43.810Z,15.10
2023-11-20T11:27:20.334Z,10.35
2023-11-20T11:29:57.921Z,12.55
2023-11-20T11:32:49.026Z,12.15
2023-11-20T11:35:32.085Z,12.32
2023-11-20T11:38:12.565Z,14.45
2023-11-20T11:41:15.189Z,9.43
2023-11-20T11:44:00.425Z,14.90
2023-11-20T11:46:27.871Z,16.95
2023-11-20T11:48:54.535Z,9.48
2023-11-20T11:51:25.865Z,9.35
2023-11-20T11:54:17.945Z,11.32
2023-11-20T11:56:58.817Z,10.07
2023-11-20T11:59:46.468Z,9.10
2023-11-20T12:02:22.032Z,10.00
2023-11-20T12:04:58.087Z,10.40
2023-11-20T12:07:47.032Z,15.00
2023-11-20T12:10:13.893Z,12.57
2023-11-20T12:12:49.582Z,13.93
2023-11-20T12:15:31.792Z,8.90
2023-11-20T12:18:03.014Z,4.82
2023-11-20T12:20:32.227Z,12.95
2023-11-20T12:23:07.342Z,8.18
2023-11-20T12:25:37.988Z,12.02
2023-11-20T12:28:10.540Z,18.58
2023-11-20T12:30:37.301Z,9.82
2023-11-20T12:33:04.187Z,6.15
2023-11-20T12:35:33.547Z,5.63
2023-11-20T12:38:01.644Z,14.35
2023-11-20T12:40:28.398Z,10.88
2023-11-20T12:42:55.334Z,8.18
2023-11-20T12:45:22.097Z,9.23
2023-11-20T12:47:49.064Z,8.43
2023-11-20T12:50:15.570Z,9.40
2023-11-20T12:52:42.979Z,10.93
2023-11-20T12:55:11.869Z,10.75
2023-11-20T12:57:39.157Z,7.93
2023-11-20T13:00:11.327Z,5.10
2023-11-20T13:02:39.301Z,6.00
2023-11-20T13:07:36.069Z,13.80
2023-11-20T13:10:07.770Z,9.57
2023-11-20T13:12:36.628Z,8.35
2023-11-20T13:15:05.628Z,9.57
2023-11-20T13:17:35.247Z,12.07
2023-11-20T13:20:06.727Z,9.20
2023-11-20T13:22:45.712Z,6.53
2023-11-20T13:25:12.453Z,8.85
2023-11-20T13:27:41.974Z,10.38
2023-11-20T13:30:18.762Z,8.45
2023-11-20T13:32:45.958Z,9.40
2023-11-20T13:35:12.883Z,12.07
2023-11-20T13:37:42.233Z,10.60
2023-11-20T13:40:13.513Z,13.10
2023-11-20T13:42:41.025Z,10.13
2023-11-20T13:45:08.396Z,7.55
2023-11-20T13:47:39.248Z,8.27
2023-11-20T13:50:21.535Z,9.40
2023-11-20T13:52:48.525Z,11.50
2023-11-20T13:55:15.259Z,6.05
2023-11-20T13:57:43.578Z,9.48
2023-11-20T14:00:19.994Z,13.43
2023-11-20T14:02:50.335Z,6.65
2023-11-20T14:05:18.533Z,8.73
2023-11-20T14:07:46.264Z,6.00
2023-11-20T14:10:14.395Z,8.52
2023-11-20T14:15:07.971Z,5.28
2023-11-20T14:17:34.669Z,8.35
2023-11-20T14:20:02.329Z,10.85
2023-11-20T14:22:28.918Z,14.52
2023-11-20T14:24:58.922Z,6.70
2023-11-20T14:27:26.147Z,13.60
2023-11-20T14:29:55.188Z,8.38
2023-11-20T14:32:22.064Z,7.68
2023-11-20T14:34:49.315Z,7.22
2023-11-20T14:37:18.419Z,10.00
2023-11-20T14:39:45.309Z,8.90
2023-11-20T14:42:11.756Z,8.85
2023-11-20T14:44:39.458Z,7.25
2023-11-20T14:47:07.801Z,5.40
2023-11-20T14:49:36.406Z,8.85
2023-11-20T14:52:04.261Z,9.90
2023-11-20T14:54:30.879Z,6.88
2023-11-20T14:56:57.488Z,6.90
2023-11-20T14:59:23.935Z,5.03
2023-11-20T15:01:52.225Z,5.90
2023-11-20T15:04:21.114Z,12.57
2023-11-20T15:06:48.625Z,11.27
2023-11-20T15:09:15.883Z,9.93
2023-11-20T15:11:42.422Z,6.75
2023-11-20T15:14:09.209Z,9.05
2023-11-20T15:16:38.570Z,4.50
2023-11-20T15:19:06.291Z,9.48
2023-11-20T15:21:33.307Z,6.60
2023-11-20T15:26:40.384Z,8.23
2023-11-20T15:29:08.544Z,11.23
2023-11-20T15:34:01.734Z,4.57
2023-11-20T15:36:28.229Z,8.90
2023-11-20T15:38:54.868Z,7.47
2023-11-20T15:41:21.296Z,6.75
2023-11-20T15:43:47.742Z,7.78
2023-11-20T15:46:15.757Z,6.03
2023-11-20T15:48:43.924Z,6.43
2023-11-20T15:51:12.058Z,11.85
2023-11-20T15:53:38.753Z,6.28
2023-11-20T15:56:16.488Z,6.43
2023-11-20T15:58:43.319Z,7.32
2023-11-20T16:01:10.025Z,7.57
2023-11-20T16:03:36.888Z,6.13
2023-11-20T16:06:03.598Z,7.43
2023-11-20T16:08:35.561Z,5.78
2023-11-20T16:11:02.200Z,5.45
2023-11-20T16:13:29.575Z,7.82
2023-11-20T16:15:56.970Z,8.27
2023-11-20T16:18:23.685Z,7.90
2023-11-20T16:20:50.671Z,3.25
2023-11-20T16:23:17.370Z,9.55
2023-11-20T16:25:48.310Z,6.40
2023-11-20T16:28:15.626Z,5.05
2023-11-20T16:30:42.289Z,17.27
2023-11-20T16:33:08.958Z,5.97
2023-11-20T16:35:38.254Z,6.50
2023-11-20T16:38:04.977Z,11.00
2023-11-20T16:40:32.085Z,12.70
2023-11-20T16:43:00.265Z,10.35
2023-11-20T16:47:54.424Z,9.90
2023-11-20T16:50:20.949Z,7.43
2023-11-20T16:52:47.765Z,9.63
2023-11-20T16:55:14.606Z,6.35
2023-11-20T16:57:41.165Z,6.63
2023-11-20T17:00:13.723Z,9.15
2023-11-20T17:02:40.492Z,10.77
2023-11-20T17:05:09.881Z,6.97
2023-11-20T17:07:36.715Z,9.30
2023-11-20T17:10:05.782Z,8.45
2023-11-20T17:12:33.566Z,9.45
2023-11-20T17:14:59.985Z,12.55
2023-11-20T17:17:26.565Z,11.82
2023-11-20T17:19:54.145Z,15.50
2023-11-20T17:22:22.581Z,10.73
2023-11-20T17:24:51.361Z,7.63
2023-11-20T17:27:18.043Z,7.22
2023-11-20T17:34:53.296Z,7.68
2023-11-20T17:37:20.540Z,8.23
2023-11-20T17:39:47.330Z,11.70
2023-11-20T17:42:15.513Z,10.85
2023-11-20T17:44:44.634Z,10.05
2023-11-20T17:47:12.256Z,9.70
2023-11-20T17:49:39.099Z,7.88
2023-11-20T17:54:46.239Z,9.93
2023-11-20T17:57:12.786Z,9.52
2023-11-20T17:59:39.591Z,8.18
2023-11-20T18:02:06.288Z,10.95
2023-11-20T18:04:35.405Z,7.57
2023-11-20T18:07:03.734Z,6.72
2023-11-20T18:11:56.939Z,9.63
2023-11-20T18:14:23.590Z,11.27
2023-11-20T18:16:50.104Z,10.48
2023-11-20T18:19:16.613Z,8.75
2023-11-20T18:21:52.101Z,11.90
2023-11-20T18:24:20.765Z,10.70
2023-11-20T18:26:47.270Z,12.75
2023-11-20T18:29:14.275Z,11.75
2023-11-20T18:31:40.779Z,14.52
2023-11-20T18:34:08.997Z,35.78
2023-11-20T18:39:02.016Z,14.63
2023-11-20T18:41:31.537Z,17.30
2023-11-20T18:43:58.237Z,13.07
2023-11-20T18:46:24.731Z,11.13
2023-11-20T18:48:51.407Z,15.32
2023-11-20T18:51:17.853Z,12.93
2023-11-20T18:53:47.064Z,16.48
2023-11-20T18:56:13.562Z,13.68
2023-11-20T18:58:41.257Z,12.95
2023-11-20T19:01:07.818Z,14.13
2023-11-20T19:03:34.642Z,23.35
2023-11-20T19:06:01.172Z,15.27
2023-11-20T19:08:31.854Z,14.35
2023-11-20T19:10:58.274Z,12.98
2023-11-20T19:13:24.745Z,16.27
2023-11-20T19:15:53.688Z,13.30
2023-11-20T19:18:20.251Z,17.00
2023-11-20T19:20:47.076Z,19.65
2023-11-20T19:23:13.773Z,16.67
2023-11-20T19:25:40.799Z,12.23
2023-11-20T19:28:07.458Z,15.77
2023-11-20T19:30:35.936Z,17.23
2023-11-20T19:33:06.629Z,14.43
2023-11-20T19:35:33.235Z,13.73
2023-11-20T19:38:00.120Z,13.60
2023-11-20T19:40:27.921Z,14.95
2023-11-20T19:42:54.577Z,16.27
2023-11-20T19:45:22.513Z,13.15
2023-11-20T19:47:49.281Z,10.70
2023-11-20T19:50:16.088Z,11.15
2023-11-20T19:52:43.651Z,12.77
2023-11-20T19:55:10.541Z,13.27
2023-11-20T19:57:37.401Z,13.40
2023-11-20T20:00:09.089Z,13.45
2023-11-20T20:02:36.401Z,11.20
2023-11-20T20:05:03.536Z,12.07
2023-11-20T20:07:30.467Z,14.80
2023-11-20T20:09:56.985Z,13.75
2023-11-20T20:12:23.481Z,16.00
2023-11-20T20:14:52.090Z,15.25
2023-11-20T20:17:20.133Z,19.05
2023-11-20T20:19:49.470Z,17.38
2023-11-20T20:22:17.541Z,18.48
2023-11-20T20:24:45.587Z,16.80
2023-11-20T20:27:12.354Z,16.85
2023-11-20T20:29:39.883Z,19.00
2023-11-20T20:32:10.239Z,12.80
2023-11-20T20:34:38.248Z,13.85
2023-11-20T20:37:05.160Z,13.13
2023-11-20T20:39:31.587Z,12.85
2023-11-20T20:41:58.153Z,16.05
2023-11-20T20:44:25.103Z,14.05
2023-11-20T20:46:52.201Z,16.85
2023-11-20T20:49:19.477Z,15.27
2023-11-20T20:51:46.910Z,11.27
2023-11-20T20:54:13.932Z,13.45
2023-11-20T20:56:41.949Z,20.20
2023-11-20T20:59:10.105Z,17.88
2023-11-20T21:01:37.227Z,16.08
2023-11-20T21:04:04.946Z,16.52
2023-11-20T21:06:31.474Z,12.00
2023-11-20T21:08:59.791Z,13.20
2023-11-20T21:13:53.148Z,14.55
2023-11-20T21:16:20.130Z,14.70
2023-11-20T21:18:46.604Z,12.60
2023-11-20T21:21:13.235Z,14.48
2023-11-20T21:23:40.332Z,19.88
2023-11-20T21:26:07.243Z,13.27
2023-11-20T21:28:34.829Z,16.38
2023-11-20T21:31:04.590Z,15.32
2023-11-20T21:33:31.846Z,18.13
2023-11-20T21:35:58.303Z,15.48
2023-11-20T21:38:25.191Z,12.98
2023-11-20T21:40:52.679Z,16.50
2023-11-20T21:43:19.809Z,17.65
2023-11-20T21:45:57.441Z,16.52
2023-11-20T21:48:24.423Z,14.57
2023-11-20T21:50:50.895Z,15.10
2023-11-20T21:53:17.464Z,16.40
2023-11-20T21:55:46.521Z,16.88
2023-11-20T21:58:14.027Z,16.17
2023-11-20T22:00:40.505Z,19.48
2023-11-20T22:03:07.995Z,15.30
2023-11-20T22:05:34.588Z,13.35
2023-11-20T22:08:01.101Z,14.13
2023-11-20T22:10:27.600Z,14.70
2023-11-20T22:12:54.168Z,20.20
2023-11-20T22:15:20.655Z,14.25
2023-11-20T22:17:47.227Z,18.23
2023-11-20T22:20:14.143Z,15.82
2023-11-20T22:22:44.098Z,15.73
2023-11-20T22:25:11.640Z,14.95
2023-11-20T22:27:38.614Z,20.38
2023-11-20T22:30:07.652Z,16.15
2023-11-20T22:32:34.289Z,16.23
2023-11-20T22:35:10.725Z,14.88
2023-11-20T22:37:41.272Z,16.65
2023-11-20T22:40:10.335Z,12.13
2023-11-20T22:42:38.611Z,13.43
2023-11-20T22:45:07.572Z,15.55
2023-11-20T22:47:34.425Z,12.93
2023-11-20T22:50:01.108Z,16.48
2023-11-20T22:52:27.777Z,14.23
2023-11-20T22:54:54.494Z,15.75
2023-11-20T22:57:21.504Z,11.88
2023-11-20T22:59:48.214Z,12.30
2023-11-20T23:02:14.959Z,12.43
2023-11-20T23:04:41.794Z,11.40
2023-11-20T23:07:08.419Z,15.23
2023-11-20T23:09:34.888Z,14.13
2023-11-20T23:12:01.375Z,12.90
2023-11-20T23:14:27.879Z,16.13
2023-11-20T23:16:55.297Z,15.13
2023-11-20T23:19:22.707Z,11.85
2023-11-20T23:21:49.583Z,15.13
2023-11-20T23:24:16.082Z,16.15
2023-11-20T23:26:42.601Z,12.63
2023-11-20T23:29:13.980Z,13.80
2023-11-20T23:31:41.287Z,15.13
2023-11-20T23:34:08.097Z,14.88
2023-11-20T23:36:34.660Z,16.05
2023-11-20T23:39:01.206Z,14.90
2023-11-20T23:41:27.925Z,12.45
2023-11-20T23:43:55.111Z,16.15
2023-11-20T23:46:22.661Z,15.63
2023-11-20T23:48:51.914Z,16.27
2023-11-20T23:51:18.783Z,16.05
2023-11-20T23:53:46.362Z,14.25
2023-11-20T23:56:14.211Z,13.27
2023-11-20T23:58:41.155Z,14.85
